createdAt,value
2023-03-21T00:00:45.180Z,68.68
2023-03-21T00:03:12.224Z,68.50
2023-03-21T00:05:43.266Z,69.16
2023-03-21T00:08:10.183Z,69.22
2023-03-21T00:10:43.579Z,69.33
2023-03-21T00:13:14.104Z,69.56
2023-03-21T00:16:05.274Z,69.73
2023-03-21T00:18:41.930Z,69.75
2023-03-21T00:24:00.875Z,69.87
2023-03-21T00:26:28.041Z,69.95
2023-03-21T00:28:54.805Z,69.81
2023-03-21T00:31:21.781Z,69.87
2023-03-21T00:33:50.456Z,70.16
2023-03-21T00:36:18.245Z,70.14
2023-03-21T00:38:45.132Z,70.34
2023-03-21T00:41:25.892Z,70.12
2023-03-21T00:44:03.406Z,70.50
2023-03-21T00:46:43.656Z,70.64
2023-03-21T00:49:12.446Z,70.55
2023-03-21T00:51:40.996Z,70.73
2023-03-21T00:54:07.918Z,70.60
2023-03-21T00:56:34.761Z,70.56
2023-03-21T00:59:01.584Z,70.66
2023-03-21T01:01:32.047Z,70.54
2023-03-21T01:04:07.683Z,70.39
2023-03-21T01:06:41.727Z,70.30
2023-03-21T01:09:13.802Z,70.28
2023-03-21T01:11:40.953Z,70.42
2023-03-21T01:14:21.326Z,70.63
2023-03-21T01:16:49.099Z,70.93
2023-03-21T01:19:25.376Z,71.19
2023-03-21T01:21:57.193Z,71.21
2023-03-21T01:24:24.729Z,71.14
2023-03-21T01:26:51.536Z,71.04
2023-03-21T01:29:18.419Z,71.03
2023-03-21T01:31:45.571Z,70.89
2023-03-21T01:34:12.529Z,70.79
2023-03-21T01:36:39.864Z,70.56
2023-03-21T01:39:11.498Z,70.84
2023-03-21T01:41:43.358Z,70.80
2023-03-21T01:44:19.324Z,70.63
2023-03-21T01:49:47.908Z,70.69
2023-03-21T01:52:46.731Z,70.66
2023-03-21T01:55:18.646Z,70.55
2023-03-21T01:58:05.852Z,70.50
2023-03-21T02:00:57.068Z,70.94
2023-03-21T02:03:50.944Z,71.02
2023-03-21T02:06:52.091Z,71.31
2023-03-21T02:09:42.333Z,71.23
2023-03-21T02:12:16.398Z,71.24
2023-03-21T02:14:48.011Z,71.43
2023-03-21T02:17:36.860Z,71.23
2023-03-21T02:20:22.230Z,71.29
2023-03-21T02:23:10.708Z,71.27
2023-03-21T02:25:50.043Z,71.11
2023-03-21T02:28:35.914Z,71.16
2023-03-21T02:31:12.109Z,71.32
2023-03-21T02:33:42.444Z,71.33
2023-03-21T02:36:36.764Z,71.14
2023-03-21T02:39:24.629Z,71.17
2023-03-21T02:42:02.053Z,70.94
2023-03-21T02:44:42.109Z,71.33
2023-03-21T02:47:24.028Z,71.07
2023-03-21T02:50:11.673Z,71.12
2023-03-21T02:52:41.530Z,71.79
2023-03-21T02:55:16.122Z,72.35
2023-03-21T02:57:52.810Z,72.67
2023-03-21T03:00:24.518Z,72.72
2023-03-21T03:03:02.617Z,72.93
2023-03-21T03:05:41.314Z,73.12
2023-03-21T03:08:37.642Z,73.21
2023-03-21T03:11:23.638Z,73.56
2023-03-21T03:14:38.428Z,73.57
2023-03-21T03:17:23.266Z,74.13
2023-03-21T03:20:15.679Z,74.49
2023-03-21T03:22:50.117Z,74.03
2023-03-21T03:25:39.486Z,73.60
2023-03-21T03:28:09.726Z,73.13
2023-03-21T03:30:45.051Z,73.09
2023-03-21T03:33:24.590Z,72.93
2023-03-21T03:36:04.619Z,72.94
2023-03-21T03:38:33.898Z,72.67
2023-03-21T03:41:28.167Z,72.60
2023-03-21T03:44:01.819Z,72.41
2023-03-21T03:46:38.575Z,72.42
2023-03-21T03:49:10.871Z,72.24
2023-03-21T03:51:54.675Z,72.75
2023-03-21T03:54:38.385Z,73.00
2023-03-21T03:57:08.429Z,73.40
2023-03-21T03:59:40.836Z,73.61
2023-03-21T04:02:32.279Z,74.10
2023-03-21T04:05:01.956Z,74.62
2023-03-21T04:07:29.133Z,74.68
2023-03-21T04:09:59.839Z,75.34
2023-03-21T04:12:27.429Z,76.03
2023-03-21T04:15:16.649Z,76.54
2023-03-21T04:17:48.352Z,76.50
2023-03-21T04:20:26.454Z,76.13
2023-03-21T04:23:01.978Z,75.68
2023-03-21T04:25:33.769Z,75.36
2023-03-21T04:28:03.127Z,74.61
2023-03-21T04:31:02.443Z,74.25
2023-03-21T04:33:41.274Z,74.08
2023-03-21T04:36:09.514Z,73.84
2023-03-21T04:38:37.379Z,74.12
2023-03-21T04:41:04.869Z,74.25
2023-03-21T04:43:32.141Z,74.58
2023-03-21T04:45:59.085Z,74.78
2023-03-21T04:48:26.255Z,74.68
2023-03-21T04:50:53.165Z,74.63
2023-03-21T04:53:20.289Z,74.21
2023-03-21T04:55:47.748Z,74.01
2023-03-21T04:58:15.476Z,74.46
2023-03-21T05:00:45.156Z,74.22
2023-03-21T05:03:19.774Z,74.07
2023-03-21T05:05:48.803Z,74.26
2023-03-21T05:08:16.022Z,73.96
2023-03-21T05:10:43.691Z,74.08
2023-03-21T05:13:11.086Z,74.44
2023-03-21T05:15:38.345Z,74.01
2023-03-21T05:18:10.382Z,73.65
2023-03-21T05:20:42.860Z,73.84
2023-03-21T05:23:11.769Z,73.64
2023-03-21T05:25:39.834Z,73.54
2023-03-21T05:28:18.290Z,73.78
2023-03-21T05:30:46.643Z,73.83
2023-03-21T05:33:13.831Z,73.73
2023-03-21T05:35:41.020Z,73.78
2023-03-21T05:38:10.188Z,73.72
2023-03-21T05:40:49.315Z,73.84
2023-03-21T05:43:17.531Z,74.52
2023-03-21T05:45:45.148Z,74.66
2023-03-21T05:48:12.158Z,74.88
2023-03-21T05:50:56.598Z,74.58
2023-03-21T05:53:23.900Z,74.65
2023-03-21T05:55:50.703Z,74.63
2023-03-21T05:58:36.401Z,74.40
2023-03-21T06:01:03.467Z,73.96
2023-03-21T06:03:34.195Z,73.72
2023-03-21T06:06:05.246Z,73.55
2023-03-21T06:08:40.013Z,73.61
2023-03-21T06:11:16.825Z,73.40
2023-03-21T06:13:43.796Z,73.34
2023-03-21T06:16:10.711Z,73.28
2023-03-21T06:18:38.288Z,72.92
2023-03-21T06:21:31.395Z,72.70
2023-03-21T06:23:58.214Z,72.57
2023-03-21T06:26:25.391Z,72.21
2023-03-21T06:28:54.484Z,71.83
2023-03-21T06:31:25.269Z,71.48
2023-03-21T06:33:55.174Z,71.15
2023-03-21T06:36:22.108Z,71.07
2023-03-21T06:38:49.369Z,70.82
2023-03-21T06:41:17.092Z,70.91
2023-03-21T06:43:52.056Z,70.78
2023-03-21T06:46:19.525Z,70.46
2023-03-21T06:48:46.931Z,69.80
2023-03-21T06:51:15.446Z,69.54
2023-03-21T06:53:54.399Z,69.39
2023-03-21T06:56:29.401Z,69.14
2023-03-21T06:58:56.662Z,68.38
2023-03-21T07:01:43.792Z,70.49
2023-03-21T07:04:11.090Z,70.43
2023-03-21T07:06:38.773Z,68.96
2023-03-21T07:09:06.549Z,69.52
2023-03-21T07:11:36.219Z,66.99
2023-03-21T07:14:04.395Z,66.72
2023-03-21T07:16:31.363Z,66.80
2023-03-21T07:18:58.192Z,65.92
2023-03-21T07:21:25.123Z,65.70
2023-03-21T07:23:53.548Z,65.03
2023-03-21T07:26:20.786Z,64.80
2023-03-21T07:28:47.698Z,64.86
2023-03-21T07:31:16.543Z,64.25
2023-03-21T07:33:43.530Z,65.17
2023-03-21T07:36:13.277Z,63.98
2023-03-21T07:38:41.249Z,63.68
2023-03-21T07:41:08.588Z,64.43
2023-03-21T07:43:37.175Z,63.72
2023-03-21T07:46:09.748Z,63.73
2023-03-21T07:48:37.315Z,63.23
2023-03-21T07:51:06.465Z,62.96
2023-03-21T07:53:35.297Z,63.06
2023-03-21T07:56:02.132Z,63.06
2023-03-21T07:58:28.879Z,62.79
2023-03-21T08:00:56.665Z,62.58
2023-03-21T08:03:24.206Z,62.42
2023-03-21T08:05:51.197Z,62.67
2023-03-21T08:08:18.169Z,62.66
2023-03-21T08:10:45.253Z,62.56
2023-03-21T08:13:12.821Z,62.21
2023-03-21T08:15:42.174Z,62.32
2023-03-21T08:18:10.056Z,62.03
2023-03-21T08:20:37.067Z,62.29
2023-03-21T08:23:04.323Z,61.62
2023-03-21T08:25:31.516Z,61.68
2023-03-21T08:27:58.333Z,61.74
2023-03-21T08:30:28.219Z,61.45
2023-03-21T08:33:01.959Z,61.50
2023-03-21T08:35:29.799Z,61.36
2023-03-21T08:37:56.843Z,61.63
2023-03-21T08:40:23.602Z,61.23
2023-03-21T08:42:50.382Z,61.49
2023-03-21T08:45:18.362Z,60.43
2023-03-21T08:47:45.824Z,60.64
2023-03-21T08:50:16.059Z,60.62
2023-03-21T08:52:43.367Z,60.29
2023-03-21T08:55:11.398Z,59.85
2023-03-21T08:57:38.267Z,59.72
2023-03-21T09:00:14.906Z,59.73
2023-03-21T09:02:42.736Z,59.21
2023-03-21T09:05:12.061Z,58.79
2023-03-21T09:07:41.019Z,59.14
2023-03-21T09:10:26.954Z,59.39
2023-03-21T09:12:55.536Z,59.53
2023-03-21T09:15:25.033Z,59.16
2023-03-21T09:17:57.134Z,58.82
2023-03-21T09:20:31.203Z,58.26
2023-03-21T09:22:59.229Z,58.24
2023-03-21T09:25:29.534Z,57.97
2023-03-21T09:27:56.572Z,57.59
2023-03-21T09:30:26.248Z,57.30
2023-03-21T09:32:56.898Z,57.06
2023-03-21T09:35:24.913Z,57.29
2023-03-21T09:37:51.907Z,56.77
2023-03-21T09:40:29.193Z,56.71
2023-03-21T09:42:59.731Z,56.20
2023-03-21T09:45:49.396Z,55.85
2023-03-21T09:48:31.788Z,55.77
2023-03-21T09:50:58.609Z,55.60
2023-03-21T09:53:35.518Z,55.60
2023-03-21T09:56:02.984Z,55.68
2023-03-21T09:58:36.701Z,56.07
2023-03-21T10:01:11.232Z,56.43
2023-03-21T10:03:38.269Z,56.61
2023-03-21T10:06:13.196Z,56.82
2023-03-21T10:08:43.091Z,56.22
2023-03-21T10:11:25.590Z,56.16
2023-03-21T10:13:59.569Z,55.94
2023-03-21T10:16:41.023Z,55.84
2023-03-21T10:19:12.990Z,55.71
2023-03-21T10:21:59.746Z,55.73
2023-03-21T10:24:29.258Z,55.97
2023-03-21T10:26:59.906Z,56.67
2023-03-21T10:29:32.112Z,56.11
2023-03-21T10:32:00.669Z,56.68
2023-03-21T10:34:36.914Z,56.96
2023-03-21T10:37:05.535Z,57.87
2023-03-21T10:39:44.066Z,58.47
2023-03-21T10:42:24.022Z,58.56
2023-03-21T10:44:54.186Z,58.18
2023-03-21T10:47:24.821Z,58.52
2023-03-21T10:50:09.322Z,58.36
2023-03-21T10:52:42.047Z,57.77
2023-03-21T10:55:24.545Z,58.48
2023-03-21T10:58:08.771Z,58.94
2023-03-21T11:00:41.404Z,59.51
2023-03-21T11:03:24.589Z,59.84
2023-03-21T11:05:58.564Z,59.89
2023-03-21T11:08:27.385Z,59.43
2023-03-21T11:10:54.110Z,59.77
2023-03-21T11:13:27.123Z,59.77
2023-03-21T11:16:03.947Z,59.30
2023-03-21T11:18:33.383Z,59.48
2023-03-21T11:21:06.139Z,59.66
2023-03-21T11:23:35.875Z,59.21
2023-03-21T11:26:09.114Z,58.98
2023-03-21T11:28:39.677Z,58.75
2023-03-21T11:31:09.344Z,59.21
2023-03-21T11:33:40.603Z,59.18
2023-03-21T11:36:24.560Z,59.31
2023-03-21T11:38:56.679Z,59.89
2023-03-21T11:41:28.974Z,60.30
2023-03-21T11:43:58.230Z,60.24
2023-03-21T11:46:27.735Z,60.49
2023-03-21T11:48:56.324Z,60.29
2023-03-21T11:51:42.591Z,60.61
2023-03-21T11:54:28.298Z,61.06
2023-03-21T11:57:22.744Z,61.11
2023-03-21T12:00:01.898Z,61.39
2023-03-21T12:03:07.685Z,61.70
2023-03-21T12:05:39.516Z,61.40
2023-03-21T12:08:12.940Z,61.69
2023-03-21T12:10:46.013Z,62.11
2023-03-21T12:13:27.340Z,62.08
2023-03-21T12:16:31.711Z,61.56
2023-03-21T12:19:11.984Z,62.01
2023-03-21T12:21:57.206Z,62.07
2023-03-21T12:24:31.392Z,62.39
2023-03-21T12:27:10.561Z,61.75
2023-03-21T12:29:59.035Z,62.65
2023-03-21T12:33:02.756Z,62.56
2023-03-21T12:35:55.050Z,62.46
2023-03-21T12:38:21.999Z,63.12
2023-03-21T12:41:06.713Z,63.28
2023-03-21T12:43:45.649Z,63.17
2023-03-21T12:46:34.243Z,63.53
2023-03-21T12:49:16.772Z,63.32
2023-03-21T12:52:01.865Z,62.77
2023-03-21T12:54:40.398Z,62.98
2023-03-21T12:57:33.638Z,63.51
2023-03-21T13:00:27.430Z,63.77
2023-03-21T13:03:08.856Z,64.13
2023-03-21T13:05:41.988Z,63.78
2023-03-21T13:08:49.334Z,63.87
2023-03-21T13:11:21.903Z,64.38
2023-03-21T13:14:04.659Z,64.20
2023-03-21T13:16:38.058Z,64.50
2023-03-21T13:19:27.198Z,64.80
2023-03-21T13:22:00.611Z,64.46
2023-03-21T13:24:52.803Z,64.04
2023-03-21T13:27:31.766Z,63.94
2023-03-21T13:30:18.515Z,63.73
2023-03-21T13:32:48.933Z,62.99
2023-03-21T13:35:16.418Z,63.12
2023-03-21T13:37:59.429Z,62.90
2023-03-21T13:40:42.482Z,62.49
2023-03-21T13:43:34.240Z,60.71
2023-03-21T13:46:27.377Z,60.15
2023-03-21T13:49:01.374Z,59.87
2023-03-21T13:51:28.176Z,59.47
2023-03-21T13:54:26.152Z,59.61
2023-03-21T13:56:56.820Z,59.38
2023-03-21T13:59:44.686Z,60.00
2023-03-21T14:02:33.396Z,61.31
2023-03-21T14:05:07.332Z,62.74
2023-03-21T14:07:47.471Z,63.18
2023-03-21T14:10:37.413Z,63.46
2023-03-21T14:13:16.303Z,64.20
2023-03-21T14:15:56.475Z,63.73
2023-03-21T14:18:35.396Z,61.85
2023-03-21T14:21:29.520Z,60.70
2023-03-21T14:24:01.859Z,60.03
2023-03-21T14:26:37.994Z,59.92
2023-03-21T14:29:09.657Z,59.78
2023-03-21T14:31:45.663Z,60.10
2023-03-21T14:34:15.419Z,60.44
2023-03-21T14:36:51.646Z,60.09
2023-03-21T14:39:26.193Z,60.48
2023-03-21T14:41:56.078Z,61.80
2023-03-21T14:44:52.807Z,62.58
2023-03-21T14:47:28.105Z,63.15
2023-03-21T14:49:57.113Z,63.11
2023-03-21T14:52:27.674Z,62.00
2023-03-21T14:55:04.067Z,62.34
2023-03-21T14:57:33.282Z,62.58
2023-03-21T15:00:07.784Z,62.39
2023-03-21T15:02:40.153Z,62.27
2023-03-21T15:05:14.602Z,62.67
2023-03-21T15:07:41.631Z,62.83
2023-03-21T15:10:17.366Z,62.57
2023-03-21T15:12:51.432Z,62.22
2023-03-21T15:15:18.927Z,62.34
2023-03-21T15:17:46.524Z,62.37
2023-03-21T15:20:17.074Z,62.24
2023-03-21T15:22:54.342Z,62.47
2023-03-21T15:25:28.228Z,61.94
2023-03-21T15:27:56.146Z,62.37
2023-03-21T15:30:29.245Z,62.06
2023-03-21T15:32:57.568Z,61.87
2023-03-21T15:35:33.721Z,61.38
2023-03-21T15:38:00.576Z,61.58
2023-03-21T15:40:32.425Z,61.39
2023-03-21T15:43:25.673Z,60.00
2023-03-21T15:46:07.192Z,59.96
2023-03-21T15:48:34.872Z,60.03
2023-03-21T15:51:07.483Z,60.19
2023-03-21T15:53:36.613Z,60.31
2023-03-21T15:56:06.573Z,60.31
2023-03-21T15:58:38.788Z,60.40
2023-03-21T16:01:10.831Z,60.28
2023-03-21T16:03:42.054Z,60.33
2023-03-21T16:06:20.774Z,60.67
2023-03-21T16:08:50.197Z,60.68
2023-03-21T16:11:23.158Z,60.22
2023-03-21T16:13:51.700Z,60.26
2023-03-21T16:16:26.051Z,60.29
2023-03-21T16:18:54.764Z,60.70
2023-03-21T16:21:24.313Z,61.00
2023-03-21T16:23:51.191Z,61.43
2023-03-21T16:26:23.842Z,61.67
2023-03-21T16:28:51.242Z,62.07
2023-03-21T16:31:25.406Z,61.88
2023-03-21T16:33:52.422Z,62.29
2023-03-21T16:36:23.046Z,62.37
2023-03-21T16:38:52.710Z,62.60
2023-03-21T16:41:20.501Z,63.17
2023-03-21T16:43:47.668Z,63.40
2023-03-21T16:46:23.700Z,63.35
2023-03-21T16:48:52.992Z,63.69
2023-03-21T16:53:49.579Z,63.18
2023-03-21T16:56:27.816Z,63.27
2023-03-21T16:58:56.068Z,62.82
2023-03-21T17:01:30.103Z,63.00
2023-03-21T17:04:00.458Z,64.42
2023-03-21T17:06:30.047Z,63.55
2023-03-21T17:08:58.572Z,62.65
2023-03-21T17:11:27.331Z,62.04
2023-03-21T17:13:55.244Z,61.74
2023-03-21T17:16:26.701Z,61.48
2023-03-21T17:18:53.871Z,61.29
2023-03-21T17:21:26.660Z,61.79
2023-03-21T17:23:53.935Z,61.98
2023-03-21T17:26:24.559Z,61.95
2023-03-21T17:28:53.648Z,62.19
2023-03-21T17:31:23.785Z,62.26
2023-03-21T17:33:51.002Z,62.25
2023-03-21T17:36:19.033Z,61.83
2023-03-21T17:38:46.193Z,61.77
2023-03-21T17:41:14.766Z,62.29
2023-03-21T17:43:41.596Z,62.57
2023-03-21T17:46:16.392Z,63.07
2023-03-21T17:48:44.634Z,63.48
2023-03-21T17:51:14.814Z,63.75
2023-03-21T17:53:42.940Z,64.20
2023-03-21T17:56:14.783Z,64.59
2023-03-21T17:58:41.667Z,64.36
2023-03-21T18:01:08.521Z,64.97
2023-03-21T18:03:35.389Z,65.39
2023-03-21T18:06:02.240Z,65.85
2023-03-21T18:08:29.680Z,66.18
2023-03-21T18:10:56.613Z,66.30
2023-03-21T18:13:23.849Z,67.02
2023-03-21T18:15:50.867Z,67.00
2023-03-21T18:18:17.922Z,67.36
2023-03-21T18:20:52.257Z,67.37
2023-03-21T18:23:20.971Z,67.76
2023-03-21T18:25:48.602Z,67.97
2023-03-21T18:28:19.400Z,68.06
2023-03-21T18:33:37.742Z,68.42
2023-03-21T18:36:07.490Z,68.32
2023-03-21T18:38:35.888Z,68.48
2023-03-21T18:41:03.366Z,68.50
2023-03-21T18:46:17.650Z,68.59
2023-03-21T18:48:44.627Z,68.54
2023-03-21T18:51:11.575Z,68.58
2023-03-21T18:53:38.735Z,68.02
2023-03-21T18:56:09.931Z,67.91
2023-03-21T18:58:37.349Z,67.53
2023-03-21T19:01:05.128Z,67.43
2023-03-21T19:03:36.919Z,67.55
2023-03-21T19:06:05.450Z,67.75
2023-03-21T19:08:34.881Z,68.04
2023-03-21T19:11:05.948Z,67.74
2023-03-21T19:13:34.199Z,67.62
2023-03-21T19:16:02.590Z,67.62
2023-03-21T19:21:19.921Z,67.62
2023-03-21T19:26:33.830Z,67.52
2023-03-21T19:29:01.265Z,67.52
2023-03-21T19:31:28.254Z,67.69
2023-03-21T19:33:55.741Z,67.72
2023-03-21T19:36:23.544Z,67.73
2023-03-21T19:38:51.328Z,67.48
2023-03-21T19:41:25.478Z,67.92
2023-03-21T19:43:55.027Z,67.69
2023-03-21T19:46:25.472Z,67.83
2023-03-21T19:48:56.966Z,67.99
2023-03-21T19:51:29.731Z,67.94
2023-03-21T19:54:03.306Z,68.01
2023-03-21T19:56:31.544Z,67.85
2023-03-21T19:58:59.769Z,68.12
2023-03-21T20:01:27.681Z,68.07
2023-03-21T20:03:54.881Z,67.86
2023-03-21T20:06:25.340Z,68.22
2023-03-21T20:11:40.416Z,68.18
2023-03-21T20:14:07.373Z,68.34
2023-03-21T20:16:36.451Z,68.53
2023-03-21T20:19:06.031Z,68.60
2023-03-21T20:21:42.277Z,68.68
2023-03-21T20:24:14.724Z,68.78
2023-03-21T20:26:41.643Z,68.99
2023-03-21T20:29:56.345Z,69.11
2023-03-21T20:31:55.684Z,69.40
2023-03-21T20:34:22.997Z,69.27
2023-03-21T20:36:50.426Z,69.59
2023-03-21T20:39:17.855Z,69.86
2023-03-21T20:41:44.607Z,69.96
2023-03-21T20:44:42.100Z,70.05
2023-03-21T20:47:00.128Z,70.28
2023-03-21T20:49:28.199Z,70.45
2023-03-21T20:54:42.319Z,70.24
2023-03-21T20:57:09.320Z,70.59
2023-03-21T20:59:36.231Z,70.55
2023-03-21T21:02:03.786Z,70.44
2023-03-21T21:04:55.738Z,70.71
2023-03-21T21:07:21.083Z,70.68
2023-03-21T21:09:48.710Z,69.98
2023-03-21T21:12:19.536Z,69.69
2023-03-21T21:14:47.913Z,69.43
2023-03-21T21:17:31.200Z,69.22
2023-03-21T21:20:17.390Z,69.08
2023-03-21T21:22:58.446Z,68.98
2023-03-21T21:25:26.179Z,68.84
2023-03-21T21:27:53.879Z,69.05
2023-03-21T21:30:26.215Z,69.28
2023-03-21T21:32:54.051Z,69.17
2023-03-21T21:35:22.408Z,69.35
2023-03-21T21:37:51.089Z,69.13
2023-03-21T21:40:20.622Z,69.49
2023-03-21T21:42:47.542Z,69.44
2023-03-21T21:45:16.843Z,69.34
2023-03-21T21:47:44.844Z,69.21
2023-03-21T21:50:12.625Z,69.15
2023-03-21T21:52:39.460Z,68.82
2023-03-21T21:55:06.740Z,68.70
2023-03-21T21:57:34.709Z,68.66
2023-03-21T22:00:06.273Z,68.33
2023-03-21T22:02:39.112Z,68.95
2023-03-21T22:05:07.907Z,69.54
2023-03-21T22:07:35.084Z,70.16
2023-03-21T22:10:01.993Z,70.18
2023-03-21T22:12:29.251Z,70.22
2023-03-21T22:14:56.323Z,70.35
2023-03-21T22:17:23.252Z,70.07
2023-03-21T22:20:04.719Z,70.39
2023-03-21T22:22:36.719Z,70.31
2023-03-21T22:25:09.136Z,70.55
2023-03-21T22:27:36.819Z,71.15
2023-03-21T22:30:07.529Z,70.80
2023-03-21T22:32:36.133Z,70.68
2023-03-21T22:35:03.326Z,70.81
2023-03-21T22:37:34.812Z,71.09
2023-03-21T22:40:02.479Z,71.16
2023-03-21T22:42:29.315Z,71.20
2023-03-21T22:44:56.262Z,71.32
2023-03-21T22:47:23.200Z,71.33
2023-03-21T22:49:50.508Z,70.76
2023-03-21T22:52:17.536Z,70.50
2023-03-21T22:54:46.021Z,70.65
2023-03-21T22:57:13.793Z,70.19
2023-03-21T22:59:40.812Z,69.79
2023-03-21T23:02:09.647Z,69.88
2023-03-21T23:04:37.217Z,69.85
2023-03-21T23:07:04.296Z,69.77
2023-03-21T23:09:31.381Z,69.76
2023-03-21T23:11:58.385Z,69.61
2023-03-21T23:14:25.729Z,69.48
2023-03-21T23:17:00.307Z,70.15
2023-03-21T23:19:28.995Z,70.41
2023-03-21T23:21:56.856Z,70.32
2023-03-21T23:24:24.808Z,70.43
2023-03-21T23:26:51.757Z,70.11
2023-03-21T23:29:18.657Z,70.14
2023-03-21T23:31:45.877Z,70.07
2023-03-21T23:34:13.945Z,70.01
2023-03-21T23:36:40.964Z,70.10
2023-03-21T23:39:08.863Z,70.21
2023-03-21T23:41:35.899Z,70.25
2023-03-21T23:44:03.143Z,70.25
2023-03-21T23:46:30.964Z,70.18
2023-03-21T23:48:57.976Z,70.01
2023-03-21T23:51:24.838Z,70.24
2023-03-21T23:53:53.540Z,70.47
2023-03-21T23:56:23.214Z,70.59
2023-03-21T23:58:50.238Z,70.70
